sensor_id;sensor_type;location;lat;lon;timestamp;temperature;humidity
11079;DHT22;5592;49.234;7.268;2022-12-16T00:01:08;-3.80;99.90
11079;DHT22;5592;49.234;7.268;2022-12-16T00:03:34;-3.90;99.90
11079;DHT22;5592;49.234;7.268;2022-12-16T00:06:00;-4.10;99.90
11079;DHT22;5592;49.234;7.268;2022-12-16T00:08:28;-4.30;99.90
11079;DHT22;5592;49.234;7.268;2022-12-16T00:10:57;-4.40;99.90
11079;DHT22;5592;49.234;7.268;2022-12-16T00:13:22;-4.50;99.90
11079;DHT22;5592;49.234;7.268;2022-12-16T00:15:48;-4.60;99.90
11079;DHT22;5592;49.234;7.268;2022-12-16T00:18:14;-4.80;99.90
11079;DHT22;5592;49.234;7.268;2022-12-16T00:20:47;-4.90;99.90
11079;DHT22;5592;49.234;7.268;2022-12-16T00:23:16;-4.90;99.90
11079;DHT22;5592;49.234;7.268;2022-12-16T00:25:43;-5.00;99.90
11079;DHT22;5592;49.234;7.268;2022-12-16T00:28:10;-5.10;99.90
11079;DHT22;5592;49.234;7.268;2022-12-16T00:30:36;-5.10;99.90
11079;DHT22;5592;49.234;7.268;2022-12-16T00:33:03;-5.10;99.90
11079;DHT22;5592;49.234;7.268;2022-12-16T00:35:29;-5.10;99.90
11079;DHT22;5592;49.234;7.268;2022-12-16T00:37:55;-5.10;99.90
11079;DHT22;5592;49.234;7.268;2022-12-16T00:40:21;-5.00;99.90
11079;DHT22;5592;49.234;7.268;2022-12-16T00:42:46;-5.00;99.90
11079;DHT22;5592;49.234;7.268;2022-12-16T00:45:12;-5.00;99.90
11079;DHT22;5592;49.234;7.268;2022-12-16T00:47:38;-5.00;99.90
11079;DHT22;5592;49.234;7.268;2022-12-16T00:50:04;-5.10;99.90
11079;DHT22;5592;49.234;7.268;2022-12-16T00:52:30;-5.00;99.90
11079;DHT22;5592;49.234;7.268;2022-12-16T00:54:55;-5.10;99.90
11079;DHT22;5592;49.234;7.268;2022-12-16T00:57:21;-5.10;99.90
11079;DHT22;5592;49.234;7.268;2022-12-16T00:59:47;-5.20;99.90
11079;DHT22;5592;49.234;7.268;2022-12-16T01:02:13;-5.20;99.90
11079;DHT22;5592;49.234;7.268;2022-12-16T01:04:38;-5.30;99.90
11079;DHT22;5592;49.234;7.268;2022-12-16T01:07:07;-5.40;99.90
11079;DHT22;5592;49.234;7.268;2022-12-16T01:09:33;-5.40;99.90
11079;DHT22;5592;49.234;7.268;2022-12-16T01:11:58;-5.50;99.90
11079;DHT22;5592;49.234;7.268;2022-12-16T01:14:24;-5.50;99.90
11079;DHT22;5592;49.234;7.268;2022-12-16T01:16:52;-5.60;99.90
11079;DHT22;5592;49.234;7.268;2022-12-16T01:19:18;-5.70;99.90
11079;DHT22;5592;49.234;7.268;2022-12-16T01:21:44;-5.70;99.90
11079;DHT22;5592;49.234;7.268;2022-12-16T01:24:10;-5.80;99.90
11079;DHT22;5592;49.234;7.268;2022-12-16T01:26:36;-5.80;99.90
11079;DHT22;5592;49.234;7.268;2022-12-16T01:29:04;-5.80;99.90
11079;DHT22;5592;49.234;7.268;2022-12-16T01:31:30;-5.80;99.90
11079;DHT22;5592;49.234;7.268;2022-12-16T01:33:56;-5.90;99.90
11079;DHT22;5592;49.234;7.268;2022-12-16T01:36:22;-5.90;99.90
11079;DHT22;5592;49.234;7.268;2022-12-16T01:38:47;-5.90;99.90
11079;DHT22;5592;49.234;7.268;2022-12-16T01:41:14;-5.90;99.90
11079;DHT22;5592;49.234;7.268;2022-12-16T01:43:41;-6.00;99.90
11079;DHT22;5592;49.234;7.268;2022-12-16T01:46:15;-6.10;99.90
11079;DHT22;5592;49.234;7.268;2022-12-16T01:49:01;-6.20;99.90
11079;DHT22;5592;49.234;7.268;2022-12-16T01:54:00;-6.30;99.90
11079;DHT22;5592;49.234;7.268;2022-12-16T01:56:30;-6.40;99.90
11079;DHT22;5592;49.234;7.268;2022-12-16T01:58:57;-6.40;99.90
11079;DHT22;5592;49.234;7.268;2022-12-16T02:01:24;-6.50;99.90
11079;DHT22;5592;49.234;7.268;2022-12-16T02:03:52;-6.50;99.90
11079;DHT22;5592;49.234;7.268;2022-12-16T02:06:19;-6.60;99.90
11079;DHT22;5592;49.234;7.268;2022-12-16T02:08:45;-6.70;99.90
11079;DHT22;5592;49.234;7.268;2022-12-16T02:14:40;-6.80;99.90
11079;DHT22;5592;49.234;7.268;2022-12-16T02:36:28;-7.30;99.90
11079;DHT22;5592;49.234;7.268;2022-12-16T02:39:03;-7.30;99.90
11079;DHT22;5592;49.234;7.268;2022-12-16T02:41:43;-7.30;99.90
11079;DHT22;5592;49.234;7.268;2022-12-16T02:44:12;-7.30;99.90
11079;DHT22;5592;49.234;7.268;2022-12-16T02:46:41;-7.30;99.90
11079;DHT22;5592;49.234;7.268;2022-12-16T02:49:37;-7.30;99.90
11079;DHT22;5592;49.234;7.268;2022-12-16T02:51:55;-7.40;99.90
11079;DHT22;5592;49.234;7.268;2022-12-16T02:54:22;-7.50;99.90
11079;DHT22;5592;49.234;7.268;2022-12-16T03:04:52;-7.60;99.90
11079;DHT22;5592;49.234;7.268;2022-12-16T03:07:21;-7.60;99.90
11079;DHT22;5592;49.234;7.268;2022-12-16T03:09:49;-7.60;99.90
11079;DHT22;5592;49.234;7.268;2022-12-16T03:12:17;-7.70;99.90
11079;DHT22;5592;49.234;7.268;2022-12-16T03:14:46;-7.70;99.90
11079;DHT22;5592;49.234;7.268;2022-12-16T03:17:15;-7.70;99.90
11079;DHT22;5592;49.234;7.268;2022-12-16T03:19:46;-7.80;99.90
11079;DHT22;5592;49.234;7.268;2022-12-16T03:22:20;-7.80;99.90
11079;DHT22;5592;49.234;7.268;2022-12-16T03:24:48;-7.90;99.90
11079;DHT22;5592;49.234;7.268;2022-12-16T03:30:15;-7.90;99.90
11079;DHT22;5592;49.234;7.268;2022-12-16T03:33:01;-7.90;99.90
11079;DHT22;5592;49.234;7.268;2022-12-16T03:35:43;-7.80;99.90
11079;DHT22;5592;49.234;7.268;2022-12-16T03:38:13;-7.80;99.90
11079;DHT22;5592;49.234;7.268;2022-12-16T03:40:41;-7.80;99.90
11079;DHT22;5592;49.234;7.268;2022-12-16T03:43:10;-7.90;99.90
11079;DHT22;5592;49.234;7.268;2022-12-16T03:45:40;-7.90;99.90
11079;DHT22;5592;49.234;7.268;2022-12-16T03:48:09;-8.00;99.90
11079;DHT22;5592;49.234;7.268;2022-12-16T03:50:37;-8.10;99.90
11079;DHT22;5592;49.234;7.268;2022-12-16T03:53:03;-8.10;99.90
11079;DHT22;5592;49.234;7.268;2022-12-16T03:55:29;-8.20;99.90
11079;DHT22;5592;49.234;7.268;2022-12-16T03:57:57;-8.30;99.90
11079;DHT22;5592;49.234;7.268;2022-12-16T04:00:23;-8.40;99.90
11079;DHT22;5592;49.234;7.268;2022-12-16T04:02:49;-8.40;99.90
11079;DHT22;5592;49.234;7.268;2022-12-16T04:05:15;-8.50;99.90
11079;DHT22;5592;49.234;7.268;2022-12-16T04:07:41;-8.60;99.90
11079;DHT22;5592;49.234;7.268;2022-12-16T04:10:07;-8.60;99.90
11079;DHT22;5592;49.234;7.268;2022-12-16T04:12:33;-8.60;99.90
11079;DHT22;5592;49.234;7.268;2022-12-16T04:15:20;-8.60;99.90
11079;DHT22;5592;49.234;7.268;2022-12-16T04:18:15;-8.70;99.90
11079;DHT22;5592;49.234;7.268;2022-12-16T04:21:02;-8.70;99.90
11079;DHT22;5592;49.234;7.268;2022-12-16T04:23:56;-8.60;99.90
11079;DHT22;5592;49.234;7.268;2022-12-16T04:26:41;-8.50;99.90
11079;DHT22;5592;49.234;7.268;2022-12-16T04:29:25;-8.60;99.90
11079;DHT22;5592;49.234;7.268;2022-12-16T04:31:53;-8.70;99.90
11079;DHT22;5592;49.234;7.268;2022-12-16T04:34:20;-8.80;99.90
11079;DHT22;5592;49.234;7.268;2022-12-16T04:36:59;-8.80;99.90
11079;DHT22;5592;49.234;7.268;2022-12-16T04:39:44;-8.90;99.90
11079;DHT22;5592;49.234;7.268;2022-12-16T04:42:29;-9.00;99.90
11079;DHT22;5592;49.234;7.268;2022-12-16T04:45:13;-9.00;99.90
11079;DHT22;5592;49.234;7.268;2022-12-16T04:47:58;-9.00;99.90
11079;DHT22;5592;49.234;7.268;2022-12-16T04:50:43;-8.90;99.90
11079;DHT22;5592;49.234;7.268;2022-12-16T04:53:27;-8.90;99.90
11079;DHT22;5592;49.234;7.268;2022-12-16T04:56:12;-9.00;99.90
11079;DHT22;5592;49.234;7.268;2022-12-16T04:58:56;-9.00;99.90
11079;DHT22;5592;49.234;7.268;2022-12-16T05:01:40;-8.80;99.90
11079;DHT22;5592;49.234;7.268;2022-12-16T05:04:24;-8.80;99.90
11079;DHT22;5592;49.234;7.268;2022-12-16T05:07:09;-8.90;99.90
11079;DHT22;5592;49.234;7.268;2022-12-16T05:09:53;-9.00;99.90
11079;DHT22;5592;49.234;7.268;2022-12-16T05:12:37;-9.10;99.90
11079;DHT22;5592;49.234;7.268;2022-12-16T05:15:22;-9.20;99.90
11079;DHT22;5592;49.234;7.268;2022-12-16T05:18:09;-9.30;99.90
11079;DHT22;5592;49.234;7.268;2022-12-16T05:20:57;-9.40;99.90
11079;DHT22;5592;49.234;7.268;2022-12-16T05:23:41;-9.50;99.90
11079;DHT22;5592;49.234;7.268;2022-12-16T05:26:26;-9.50;99.90
11079;DHT22;5592;49.234;7.268;2022-12-16T05:29:10;-9.50;99.90
11079;DHT22;5592;49.234;7.268;2022-12-16T05:31:54;-9.50;99.90
11079;DHT22;5592;49.234;7.268;2022-12-16T05:34:38;-9.50;99.90
11079;DHT22;5592;49.234;7.268;2022-12-16T05:37:22;-9.50;99.90
11079;DHT22;5592;49.234;7.268;2022-12-16T05:40:08;-9.40;99.90
11079;DHT22;5592;49.234;7.268;2022-12-16T05:42:53;-9.50;99.90
11079;DHT22;5592;49.234;7.268;2022-12-16T05:45:38;-9.50;99.90
11079;DHT22;5592;49.234;7.268;2022-12-16T05:48:39;-9.60;99.90
11079;DHT22;5592;49.234;7.268;2022-12-16T05:51:23;-9.70;99.90
11079;DHT22;5592;49.234;7.268;2022-12-16T05:54:08;-9.70;99.90
11079;DHT22;5592;49.234;7.268;2022-12-16T05:56:52;-9.70;99.90
11079;DHT22;5592;49.234;7.268;2022-12-16T05:59:36;-9.60;99.90
11079;DHT22;5592;49.234;7.268;2022-12-16T06:02:20;-9.60;99.90
11079;DHT22;5592;49.234;7.268;2022-12-16T06:05:04;-9.70;99.90
11079;DHT22;5592;49.234;7.268;2022-12-16T06:07:52;-9.70;99.90
11079;DHT22;5592;49.234;7.268;2022-12-16T06:10:37;-9.80;99.90
11079;DHT22;5592;49.234;7.268;2022-12-16T06:13:21;-9.70;99.90
11079;DHT22;5592;49.234;7.268;2022-12-16T06:16:05;-9.60;99.90
11079;DHT22;5592;49.234;7.268;2022-12-16T06:18:49;-9.60;99.90
11079;DHT22;5592;49.234;7.268;2022-12-16T06:21:34;-9.60;99.90
11079;DHT22;5592;49.234;7.268;2022-12-16T06:24:18;-9.80;99.90
11079;DHT22;5592;49.234;7.268;2022-12-16T06:27:04;-9.70;99.90
11079;DHT22;5592;49.234;7.268;2022-12-16T06:29:49;-9.70;99.90
11079;DHT22;5592;49.234;7.268;2022-12-16T06:32:41;-9.80;99.90
11079;DHT22;5592;49.234;7.268;2022-12-16T06:35:25;-9.80;99.90
11079;DHT22;5592;49.234;7.268;2022-12-16T06:38:10;-9.70;99.90
11079;DHT22;5592;49.234;7.268;2022-12-16T06:40:54;-9.70;99.90
11079;DHT22;5592;49.234;7.268;2022-12-16T06:43:38;-9.80;99.90
11079;DHT22;5592;49.234;7.268;2022-12-16T06:46:23;-9.80;99.90
11079;DHT22;5592;49.234;7.268;2022-12-16T06:49:07;-9.70;99.90
11079;DHT22;5592;49.234;7.268;2022-12-16T06:51:53;-9.70;99.90
11079;DHT22;5592;49.234;7.268;2022-12-16T06:57:16;-9.80;99.90
11079;DHT22;5592;49.234;7.268;2022-12-16T07:00:00;-9.80;99.90
11079;DHT22;5592;49.234;7.268;2022-12-16T07:02:44;-9.90;99.90
11079;DHT22;5592;49.234;7.268;2022-12-16T07:05:29;-9.90;99.90
11079;DHT22;5592;49.234;7.268;2022-12-16T07:08:37;-10.00;99.90
11079;DHT22;5592;49.234;7.268;2022-12-16T07:11:30;-10.00;99.90
11079;DHT22;5592;49.234;7.268;2022-12-16T07:14:14;-10.10;99.90
11079;DHT22;5592;49.234;7.268;2022-12-16T07:16:58;-10.10;99.90
11079;DHT22;5592;49.234;7.268;2022-12-16T07:19:45;-10.10;99.90
11079;DHT22;5592;49.234;7.268;2022-12-16T07:22:29;-10.10;99.90
11079;DHT22;5592;49.234;7.268;2022-12-16T07:25:13;-10.10;99.90
11079;DHT22;5592;49.234;7.268;2022-12-16T07:27:57;-10.10;99.90
11079;DHT22;5592;49.234;7.268;2022-12-16T07:30:42;-10.10;99.90
11079;DHT22;5592;49.234;7.268;2022-12-16T07:33:34;-9.90;99.90
11079;DHT22;5592;49.234;7.268;2022-12-16T07:36:19;-9.90;99.90
11079;DHT22;5592;49.234;7.268;2022-12-16T07:39:03;-10.00;99.90
11079;DHT22;5592;49.234;7.268;2022-12-16T07:41:47;-10.00;99.90
11079;DHT22;5592;49.234;7.268;2022-12-16T07:44:31;-10.00;99.90
11079;DHT22;5592;49.234;7.268;2022-12-16T07:47:16;-10.00;99.90
11079;DHT22;5592;49.234;7.268;2022-12-16T07:50:00;-9.90;99.90
11079;DHT22;5592;49.234;7.268;2022-12-16T07:52:44;-9.80;99.90
11079;DHT22;5592;49.234;7.268;2022-12-16T07:55:31;-9.70;99.90
11079;DHT22;5592;49.234;7.268;2022-12-16T07:58:15;-9.70;99.90
11079;DHT22;5592;49.234;7.268;2022-12-16T08:01:00;-9.60;99.90
11079;DHT22;5592;49.234;7.268;2022-12-16T08:03:44;-9.50;99.90
11079;DHT22;5592;49.234;7.268;2022-12-16T08:06:29;-9.20;99.90
11079;DHT22;5592;49.234;7.268;2022-12-16T08:09:14;-8.70;99.90
11079;DHT22;5592;49.234;7.268;2022-12-16T08:11:58;-7.70;99.90
11079;DHT22;5592;49.234;7.268;2022-12-16T08:14:43;-6.80;99.90
11079;DHT22;5592;49.234;7.268;2022-12-16T08:17:27;-6.10;99.90
11079;DHT22;5592;49.234;7.268;2022-12-16T08:20:12;-5.60;99.90
11079;DHT22;5592;49.234;7.268;2022-12-16T08:22:56;-5.20;99.90
11079;DHT22;5592;49.234;7.268;2022-12-16T08:25:40;-5.10;99.90
11079;DHT22;5592;49.234;7.268;2022-12-16T08:28:24;-5.10;99.90
11079;DHT22;5592;49.234;7.268;2022-12-16T08:31:08;-5.00;99.90
11079;DHT22;5592;49.234;7.268;2022-12-16T08:33:52;-5.00;99.90
11079;DHT22;5592;49.234;7.268;2022-12-16T08:36:37;-5.10;99.90
11079;DHT22;5592;49.234;7.268;2022-12-16T08:39:22;-5.10;99.90
11079;DHT22;5592;49.234;7.268;2022-12-16T08:42:07;-4.70;99.90
11079;DHT22;5592;49.234;7.268;2022-12-16T08:44:52;-4.20;99.90
11079;DHT22;5592;49.234;7.268;2022-12-16T08:47:47;-3.40;99.90
11079;DHT22;5592;49.234;7.268;2022-12-16T08:50:31;-2.20;99.90
11079;DHT22;5592;49.234;7.268;2022-12-16T08:53:22;-1.30;99.90
11079;DHT22;5592;49.234;7.268;2022-12-16T08:56:07;-0.20;99.90
11079;DHT22;5592;49.234;7.268;2022-12-16T08:58:51;0.80;99.90
11079;DHT22;5592;49.234;7.268;2022-12-16T09:01:36;1.60;99.90
11079;DHT22;5592;49.234;7.268;2022-12-16T09:04:22;2.60;99.90
11079;DHT22;5592;49.234;7.268;2022-12-16T09:07:06;3.10;99.90
11079;DHT22;5592;49.234;7.268;2022-12-16T09:10:16;3.50;99.90
11079;DHT22;5592;49.234;7.268;2022-12-16T09:13:08;3.90;99.90
11079;DHT22;5592;49.234;7.268;2022-12-16T09:15:52;4.90;99.90
11079;DHT22;5592;49.234;7.268;2022-12-16T09:18:36;4.90;99.90
11079;DHT22;5592;49.234;7.268;2022-12-16T09:23:57;5.40;99.90
11079;DHT22;5592;49.234;7.268;2022-12-16T09:26:41;5.50;99.90
11079;DHT22;5592;49.234;7.268;2022-12-16T09:29:25;5.30;99.90
11079;DHT22;5592;49.234;7.268;2022-12-16T09:32:09;5.40;99.90
11079;DHT22;5592;49.234;7.268;2022-12-16T09:34:53;5.80;99.90
11079;DHT22;5592;49.234;7.268;2022-12-16T09:37:37;5.90;99.90
11079;DHT22;5592;49.234;7.268;2022-12-16T09:40:21;6.10;99.90
11079;DHT22;5592;49.234;7.268;2022-12-16T09:49:44;6.40;99.90
11079;DHT22;5592;49.234;7.268;2022-12-16T09:52:36;6.80;99.90
11079;DHT22;5592;49.234;7.268;2022-12-16T09:55:32;6.80;99.90
11079;DHT22;5592;49.234;7.268;2022-12-16T09:58:19;6.80;99.90
11079;DHT22;5592;49.234;7.268;2022-12-16T10:01:06;6.90;99.90
11079;DHT22;5592;49.234;7.268;2022-12-16T10:03:53;6.90;99.90
11079;DHT22;5592;49.234;7.268;2022-12-16T10:06:48;6.90;99.90
11079;DHT22;5592;49.234;7.268;2022-12-16T10:21:33;6.40;99.90
11079;DHT22;5592;49.234;7.268;2022-12-16T10:27:16;6.40;99.90
11079;DHT22;5592;49.234;7.268;2022-12-16T10:30:12;6.30;99.90
11079;DHT22;5592;49.234;7.268;2022-12-16T10:32:59;6.00;99.90
11079;DHT22;5592;49.234;7.268;2022-12-16T10:35:50;6.00;99.90
11079;DHT22;5592;49.234;7.268;2022-12-16T10:41:25;6.20;99.90
11079;DHT22;5592;49.234;7.268;2022-12-16T10:44:34;6.10;99.90
11079;DHT22;5592;49.234;7.268;2022-12-16T10:47:22;6.10;99.90
11079;DHT22;5592;49.234;7.268;2022-12-16T10:50:12;6.30;99.90
11079;DHT22;5592;49.234;7.268;2022-12-16T10:52:59;6.40;99.90
11079;DHT22;5592;49.234;7.268;2022-12-16T10:56:10;6.20;99.90
11079;DHT22;5592;49.234;7.268;2022-12-16T10:59:05;6.30;99.90
11079;DHT22;5592;49.234;7.268;2022-12-16T11:02:03;6.40;99.90
11079;DHT22;5592;49.234;7.268;2022-12-16T11:04:37;6.70;99.90
11079;DHT22;5592;49.234;7.268;2022-12-16T11:07:51;6.10;99.90
11079;DHT22;5592;49.234;7.268;2022-12-16T11:14:30;5.90;99.90
11079;DHT22;5592;49.234;7.268;2022-12-16T11:17:20;6.20;99.90
11079;DHT22;5592;49.234;7.268;2022-12-16T11:26:04;6.30;99.90
11079;DHT22;5592;49.234;7.268;2022-12-16T11:29:02;6.20;99.90
11079;DHT22;5592;49.234;7.268;2022-12-16T11:31:56;5.60;99.90
11079;DHT22;5592;49.234;7.268;2022-12-16T11:34:42;4.90;99.90
11079;DHT22;5592;49.234;7.268;2022-12-16T11:37:28;4.80;99.90
11079;DHT22;5592;49.234;7.268;2022-12-16T11:40:14;4.20;99.90
11079;DHT22;5592;49.234;7.268;2022-12-16T11:43:01;3.80;99.90
11079;DHT22;5592;49.234;7.268;2022-12-16T11:45:47;3.50;99.90
11079;DHT22;5592;49.234;7.268;2022-12-16T11:48:49;3.00;99.90
11079;DHT22;5592;49.234;7.268;2022-12-16T11:51:36;2.70;99.90
11079;DHT22;5592;49.234;7.268;2022-12-16T11:54:30;2.30;99.90
11079;DHT22;5592;49.234;7.268;2022-12-16T11:57:45;2.10;99.90
11079;DHT22;5592;49.234;7.268;2022-12-16T12:00:32;2.10;99.90
11079;DHT22;5592;49.234;7.268;2022-12-16T12:03:23;2.00;99.90
11079;DHT22;5592;49.234;7.268;2022-12-16T12:09:22;1.80;99.90
11079;DHT22;5592;49.234;7.268;2022-12-16T12:23:59;1.40;99.90
11079;DHT22;5592;49.234;7.268;2022-12-16T12:30:06;1.30;99.90
11079;DHT22;5592;49.234;7.268;2022-12-16T12:42:36;1.20;99.90
11079;DHT22;5592;49.234;7.268;2022-12-16T12:45:50;1.10;99.90
11079;DHT22;5592;49.234;7.268;2022-12-16T12:48:45;1.00;99.90
11079;DHT22;5592;49.234;7.268;2022-12-16T12:57:42;1.10;99.90
11079;DHT22;5592;49.234;7.268;2022-12-16T13:00:33;1.10;99.90
11079;DHT22;5592;49.234;7.268;2022-12-16T13:03:45;1.00;99.90
11079;DHT22;5592;49.234;7.268;2022-12-16T13:06:34;0.90;99.90
11079;DHT22;5592;49.234;7.268;2022-12-16T13:12:28;0.70;99.90
11079;DHT22;5592;49.234;7.268;2022-12-16T13:18:27;0.60;99.90
11079;DHT22;5592;49.234;7.268;2022-12-16T13:24:44;0.60;99.90
11079;DHT22;5592;49.234;7.268;2022-12-16T13:27:44;0.60;99.90
11079;DHT22;5592;49.234;7.268;2022-12-16T13:30:30;0.60;99.90
11079;DHT22;5592;49.234;7.268;2022-12-16T13:33:29;0.60;99.90
11079;DHT22;5592;49.234;7.268;2022-12-16T13:36:16;0.60;99.90
11079;DHT22;5592;49.234;7.268;2022-12-16T13:39:20;0.70;99.90
11079;DHT22;5592;49.234;7.268;2022-12-16T13:42:05;0.70;99.90
11079;DHT22;5592;49.234;7.268;2022-12-16T13:53:28;0.60;99.90
11079;DHT22;5592;49.234;7.268;2022-12-16T13:56:15;0.60;99.90
11079;DHT22;5592;49.234;7.268;2022-12-16T13:59:07;0.60;99.90
11079;DHT22;5592;49.234;7.268;2022-12-16T14:01:57;0.60;99.90
11079;DHT22;5592;49.234;7.268;2022-12-16T14:04:51;0.50;99.90
11079;DHT22;5592;49.234;7.268;2022-12-16T14:07:39;0.50;99.90
11079;DHT22;5592;49.234;7.268;2022-12-16T14:10:40;0.40;99.90
11079;DHT22;5592;49.234;7.268;2022-12-16T14:13:39;0.40;99.90
11079;DHT22;5592;49.234;7.268;2022-12-16T14:16:54;0.30;99.90
11079;DHT22;5592;49.234;7.268;2022-12-16T14:19:55;0.30;99.90
11079;DHT22;5592;49.234;7.268;2022-12-16T14:22:57;0.30;99.90
11079;DHT22;5592;49.234;7.268;2022-12-16T14:25:44;0.20;99.90
11079;DHT22;5592;49.234;7.268;2022-12-16T14:28:35;0.20;99.90
11079;DHT22;5592;49.234;7.268;2022-12-16T14:31:23;0.20;99.90
11079;DHT22;5592;49.234;7.268;2022-12-16T14:34:36;0.10;99.90
11079;DHT22;5592;49.234;7.268;2022-12-16T14:37:27;0.10;99.90
11079;DHT22;5592;49.234;7.268;2022-12-16T14:43:23;0.00;99.90
11079;DHT22;5592;49.234;7.268;2022-12-16T14:46:30;0.10;99.90
11079;DHT22;5592;49.234;7.268;2022-12-16T14:49:19;0.00;99.90
11079;DHT22;5592;49.234;7.268;2022-12-16T14:52:18;0.00;99.90
11079;DHT22;5592;49.234;7.268;2022-12-16T14:55:11;-0.10;99.90
11079;DHT22;5592;49.234;7.268;2022-12-16T15:00:54;-0.20;99.90
11079;DHT22;5592;49.234;7.268;2022-12-16T15:03:46;-0.40;99.90
11079;DHT22;5592;49.234;7.268;2022-12-16T15:06:35;-0.70;99.90
11079;DHT22;5592;49.234;7.268;2022-12-16T15:09:34;-0.80;99.90
11079;DHT22;5592;49.234;7.268;2022-12-16T15:12:23;-1.00;99.90
11079;DHT22;5592;49.234;7.268;2022-12-16T15:15:15;-1.10;99.90
11079;DHT22;5592;49.234;7.268;2022-12-16T15:18:02;-1.10;99.90
11079;DHT22;5592;49.234;7.268;2022-12-16T15:20:53;-1.00;99.90
11079;DHT22;5592;49.234;7.268;2022-12-16T15:23:39;-1.00;99.90
11079;DHT22;5592;49.234;7.268;2022-12-16T15:26:26;-1.10;99.90
11079;DHT22;5592;49.234;7.268;2022-12-16T15:29:31;-1.10;99.90
11079;DHT22;5592;49.234;7.268;2022-12-16T15:32:34;-1.30;99.90
11079;DHT22;5592;49.234;7.268;2022-12-16T15:35:36;-1.70;99.90
11079;DHT22;5592;49.234;7.268;2022-12-16T15:38:30;-2.00;99.90
11079;DHT22;5592;49.234;7.268;2022-12-16T15:41:45;-2.30;99.90
11079;DHT22;5592;49.234;7.268;2022-12-16T15:44:29;-2.60;99.90
11079;DHT22;5592;49.234;7.268;2022-12-16T15:47:28;-2.80;99.90
11079;DHT22;5592;49.234;7.268;2022-12-16T15:50:14;-2.90;99.90
11079;DHT22;5592;49.234;7.268;2022-12-16T15:53:31;-2.90;99.90
11079;DHT22;5592;49.234;7.268;2022-12-16T15:56:43;-3.00;99.90
11079;DHT22;5592;49.234;7.268;2022-12-16T15:59:30;-3.20;99.90
11079;DHT22;5592;49.234;7.268;2022-12-16T16:02:21;-3.40;99.90
11079;DHT22;5592;49.234;7.268;2022-12-16T16:05:15;-3.50;99.90
11079;DHT22;5592;49.234;7.268;2022-12-16T16:08:01;-3.40;99.90
11079;DHT22;5592;49.234;7.268;2022-12-16T16:10:45;-3.60;99.90
11079;DHT22;5592;49.234;7.268;2022-12-16T16:13:29;-3.80;99.90
11079;DHT22;5592;49.234;7.268;2022-12-16T16:16:13;-4.00;99.90
11079;DHT22;5592;49.234;7.268;2022-12-16T16:18:58;-4.20;99.90
11079;DHT22;5592;49.234;7.268;2022-12-16T16:21:43;-4.50;99.90
11079;DHT22;5592;49.234;7.268;2022-12-16T16:24:27;-4.60;99.90
11079;DHT22;5592;49.234;7.268;2022-12-16T16:27:13;-4.80;99.90
11079;DHT22;5592;49.234;7.268;2022-12-16T16:29:58;-5.00;99.90
11079;DHT22;5592;49.234;7.268;2022-12-16T16:32:46;-5.00;99.90
11079;DHT22;5592;49.234;7.268;2022-12-16T16:35:31;-5.00;99.90
11079;DHT22;5592;49.234;7.268;2022-12-16T16:38:16;-5.00;99.90
11079;DHT22;5592;49.234;7.268;2022-12-16T16:41:00;-5.10;99.90
11079;DHT22;5592;49.234;7.268;2022-12-16T16:43:44;-5.30;99.90
11079;DHT22;5592;49.234;7.268;2022-12-16T16:46:36;-5.40;99.90
11079;DHT22;5592;49.234;7.268;2022-12-16T16:49:28;-5.60;99.90
11079;DHT22;5592;49.234;7.268;2022-12-16T16:52:16;-5.80;99.90
11079;DHT22;5592;49.234;7.268;2022-12-16T16:55:02;-5.90;99.90
11079;DHT22;5592;49.234;7.268;2022-12-16T16:57:46;-6.00;99.90
11079;DHT22;5592;49.234;7.268;2022-12-16T17:00:31;-6.00;99.90
11079;DHT22;5592;49.234;7.268;2022-12-16T17:03:15;-6.10;99.90
11079;DHT22;5592;49.234;7.268;2022-12-16T17:06:00;-6.20;99.90
11079;DHT22;5592;49.234;7.268;2022-12-16T17:08:44;-6.20;99.90
11079;DHT22;5592;49.234;7.268;2022-12-16T17:11:28;-6.30;99.90
11079;DHT22;5592;49.234;7.268;2022-12-16T17:14:16;-6.40;99.90
11079;DHT22;5592;49.234;7.268;2022-12-16T17:17:01;-6.50;99.90
11079;DHT22;5592;49.234;7.268;2022-12-16T17:19:45;-6.60;99.90
11079;DHT22;5592;49.234;7.268;2022-12-16T17:22:30;-6.60;99.90
11079;DHT22;5592;49.234;7.268;2022-12-16T17:25:15;-6.70;99.90
11079;DHT22;5592;49.234;7.268;2022-12-16T17:28:00;-6.70;99.90
11079;DHT22;5592;49.234;7.268;2022-12-16T17:30:45;-6.70;99.90
11079;DHT22;5592;49.234;7.268;2022-12-16T17:33:29;-6.80;99.90
11079;DHT22;5592;49.234;7.268;2022-12-16T17:36:15;-6.90;99.90
11079;DHT22;5592;49.234;7.268;2022-12-16T17:39:00;-6.90;99.90
11079;DHT22;5592;49.234;7.268;2022-12-16T17:41:45;-7.00;99.90
11079;DHT22;5592;49.234;7.268;2022-12-16T17:44:29;-7.10;99.90
11079;DHT22;5592;49.234;7.268;2022-12-16T17:47:14;-7.10;99.90
11079;DHT22;5592;49.234;7.268;2022-12-16T17:49:58;-7.20;99.90
11079;DHT22;5592;49.234;7.268;2022-12-16T17:52:42;-7.20;99.90
11079;DHT22;5592;49.234;7.268;2022-12-16T17:55:27;-7.30;99.90
11079;DHT22;5592;49.234;7.268;2022-12-16T17:58:12;-7.30;99.90
11079;DHT22;5592;49.234;7.268;2022-12-16T18:01:00;-7.30;99.90
11079;DHT22;5592;49.234;7.268;2022-12-16T18:03:47;-7.40;99.90
11079;DHT22;5592;49.234;7.268;2022-12-16T18:06:34;-7.40;99.90
11079;DHT22;5592;49.234;7.268;2022-12-16T18:09:19;-7.50;99.90
11079;DHT22;5592;49.234;7.268;2022-12-16T18:12:03;-7.50;99.90
11079;DHT22;5592;49.234;7.268;2022-12-16T18:14:47;-7.60;99.90
11079;DHT22;5592;49.234;7.268;2022-12-16T18:17:31;-7.60;99.90
11079;DHT22;5592;49.234;7.268;2022-12-16T18:20:16;-7.60;99.90
11079;DHT22;5592;49.234;7.268;2022-12-16T18:23:00;-7.60;99.90
11079;DHT22;5592;49.234;7.268;2022-12-16T18:25:44;-7.60;99.90
11079;DHT22;5592;49.234;7.268;2022-12-16T18:28:29;-7.70;99.90
11079;DHT22;5592;49.234;7.268;2022-12-16T18:31:13;-7.70;99.90
11079;DHT22;5592;49.234;7.268;2022-12-16T18:33:57;-7.80;99.90
11079;DHT22;5592;49.234;7.268;2022-12-16T18:36:41;-7.80;99.90
11079;DHT22;5592;49.234;7.268;2022-12-16T18:39:25;-7.70;99.90
11079;DHT22;5592;49.234;7.268;2022-12-16T18:42:09;-7.80;99.90
11079;DHT22;5592;49.234;7.268;2022-12-16T18:44:53;-7.80;99.90
11079;DHT22;5592;49.234;7.268;2022-12-16T18:47:40;-7.90;99.90
11079;DHT22;5592;49.234;7.268;2022-12-16T18:50:25;-7.90;99.90
11079;DHT22;5592;49.234;7.268;2022-12-16T18:53:09;-8.00;99.90
11079;DHT22;5592;49.234;7.268;2022-12-16T18:56:07;-8.00;99.90
11079;DHT22;5592;49.234;7.268;2022-12-16T18:58:52;-8.00;99.90
11079;DHT22;5592;49.234;7.268;2022-12-16T19:01:37;-8.00;99.90
11079;DHT22;5592;49.234;7.268;2022-12-16T19:04:21;-8.00;99.90
11079;DHT22;5592;49.234;7.268;2022-12-16T19:07:05;-8.00;99.90
11079;DHT22;5592;49.234;7.268;2022-12-16T19:09:49;-8.10;99.90
11079;DHT22;5592;49.234;7.268;2022-12-16T19:12:33;-8.10;99.90
11079;DHT22;5592;49.234;7.268;2022-12-16T19:15:18;-8.20;99.90
11079;DHT22;5592;49.234;7.268;2022-12-16T19:18:02;-8.20;99.90
11079;DHT22;5592;49.234;7.268;2022-12-16T19:20:53;-8.30;99.90
11079;DHT22;5592;49.234;7.268;2022-12-16T19:23:38;-8.30;99.90
11079;DHT22;5592;49.234;7.268;2022-12-16T19:26:22;-8.40;99.90
11079;DHT22;5592;49.234;7.268;2022-12-16T19:29:06;-8.40;99.90
11079;DHT22;5592;49.234;7.268;2022-12-16T19:31:50;-8.40;99.90
11079;DHT22;5592;49.234;7.268;2022-12-16T19:34:34;-8.50;99.90
11079;DHT22;5592;49.234;7.268;2022-12-16T19:37:18;-8.40;99.90
11079;DHT22;5592;49.234;7.268;2022-12-16T19:40:03;-8.40;99.90
11079;DHT22;5592;49.234;7.268;2022-12-16T19:42:48;-8.40;99.90
11079;DHT22;5592;49.234;7.268;2022-12-16T19:45:32;-8.50;99.90
11079;DHT22;5592;49.234;7.268;2022-12-16T19:48:16;-8.50;99.90